Main page
METAR-TAF:

METAR-TAF

Airports :

Varna Airport

Varna, Bulgaria

latitude: 43-12N, longitude: 027-55E, elevation: 41 m

Current weather observation

The report was made 23 minutes ago, at 16:30 UTC
Wind 8 kt from the East
Temperature 8°C
Humidity 66%
Pressure 1031 hPa
Visibility 10 km or more
no clouds below 1500 m and no cumulonimbus

METAR: LBWN 251630Z 09008KT CAVOK 08/02 Q1031 NOSIG

Time: 19:53 (16:53 UTC)

Forecast

The report was made 5 hours and 53 minutes ago, at 11:00 UTC
Forecast valid from 25 at 12 UTC to 26 at 12 UTC
Wind 10 kt from the East/Northeast
Visibility 10 km or more
no clouds below 1500 m and no cumulonimbus
Becoming
from 25 at 18 UTC to 25 at 20 UTC
Wind 10 kt from the North
Broken clouds at a height of 3000 ft
Temporary
from 26 at 02 UTC to 26 at 06 UTC
Broken clouds at a height of 1500 ft
Overcast at a height of 3000 ft

TAF: LBWN 251100Z 2512/2612 07010KT CAVOK BECMG 2518/2520 01010KT BKN030 TEMPO 2602/2606 BKN015 OVC030

Weather observations and forecasts of more than 4000 airports (METAR and TAF reports).

The available stations are represented by yellow and red dots on the map.

Hover mouse over dot to see the name of the station.

Then click to see weather observations and forecasts.

To change the map : click on the green buttons with a black cross to zoom in, on the green button with a dash to zoom out, or on the green arrows for adjacent maps.


METAR-TAF: